createdAt,value
2019-04-16T00:02:18.552Z,7.60
2019-04-16T00:05:01.258Z,7.60
2019-04-16T00:07:41.132Z,7.40
2019-04-16T00:10:32.930Z,7.40
2019-04-16T00:13:33.787Z,7.60
2019-04-16T00:16:03.862Z,7.40
2019-04-16T00:18:33.866Z,7.40
2019-04-16T00:21:25.672Z,7.20
2019-04-16T00:24:18.526Z,7.20
2019-04-16T00:26:51.584Z,7.10
2019-04-16T00:29:21.609Z,7.00
2019-04-16T00:32:00.514Z,7.10
2019-04-16T00:34:30.676Z,7.20
2019-04-16T00:37:00.797Z,7.20
2019-04-16T00:39:30.860Z,7.30
2019-04-16T00:42:01.018Z,7.10
2019-04-16T00:44:31.173Z,7.10
2019-04-16T00:47:01.304Z,7.30
2019-04-16T00:49:31.376Z,7.30
2019-04-16T00:52:05.888Z,7.20
2019-04-16T00:54:33.376Z,7.20
2019-04-16T00:57:03.571Z,7.00
2019-04-16T00:59:33.803Z,7.20
2019-04-16T01:02:03.998Z,7.10
2019-04-16T01:04:34.159Z,6.90
2019-04-16T01:07:04.615Z,6.90
2019-04-16T01:09:34.691Z,7.00
2019-04-16T01:12:05.045Z,7.00
2019-04-16T01:14:35.176Z,7.00
2019-04-16T01:17:05.742Z,6.90
2019-04-16T01:19:38.326Z,6.80
2019-04-16T01:22:07.782Z,6.70
2019-04-16T01:24:37.886Z,6.90
2019-04-16T01:27:07.903Z,6.80
2019-04-16T01:29:37.953Z,6.80
2019-04-16T01:32:36.813Z,6.70
2019-04-16T01:35:30.380Z,6.70
2019-04-16T01:38:27.923Z,6.70
2019-04-16T01:41:00.905Z,6.50
2019-04-16T01:43:30.946Z,6.60
2019-04-16T01:46:02.285Z,6.50
2019-04-16T01:48:32.916Z,6.50
2019-04-16T01:51:03.064Z,6.50
2019-04-16T01:53:34.620Z,6.30
2019-04-16T01:56:05.692Z,6.20
2019-04-16T01:58:35.763Z,6.30
2019-04-16T02:01:08.160Z,6.30
2019-04-16T02:03:37.862Z,6.40
2019-04-16T02:06:07.962Z,6.40
2019-04-16T02:08:38.159Z,6.40
2019-04-16T02:11:10.582Z,6.30
2019-04-16T02:13:40.166Z,6.30
2019-04-16T02:16:10.334Z,6.30
2019-04-16T02:18:40.504Z,6.30
2019-04-16T02:21:11.494Z,6.30
2019-04-16T02:23:41.728Z,6.40
2019-04-16T02:26:11.764Z,6.30
2019-04-16T02:28:41.823Z,6.30
2019-04-16T02:31:15.279Z,6.10
2019-04-16T02:33:43.694Z,6.10
2019-04-16T02:36:13.714Z,6.00
2019-04-16T02:38:52.569Z,6.00
2019-04-16T02:41:15.795Z,6.00
2019-04-16T02:43:45.829Z,6.00
2019-04-16T02:46:16.033Z,6.00
2019-04-16T02:48:49.991Z,6.10
2019-04-16T02:51:30.437Z,6.10
2019-04-16T02:54:18.186Z,6.10
2019-04-16T02:57:03.551Z,6.00
2019-04-16T02:59:36.647Z,5.90
2019-04-16T03:02:22.779Z,5.80
2019-04-16T03:04:58.188Z,5.60
2019-04-16T03:07:27.751Z,5.60
2019-04-16T03:10:01.530Z,5.60
2019-04-16T03:12:29.584Z,5.50
2019-04-16T03:15:01.226Z,5.60
2019-04-16T03:17:46.064Z,5.50
2019-04-16T03:20:17.540Z,5.40
2019-04-16T03:22:47.673Z,5.40
2019-04-16T03:25:17.878Z,5.40
2019-04-16T03:27:48.000Z,5.30
2019-04-16T03:30:18.538Z,5.10
2019-04-16T03:32:50.351Z,4.90
2019-04-16T03:35:25.038Z,4.90
2019-04-16T03:37:52.573Z,4.90
2019-04-16T03:40:25.435Z,4.70
2019-04-16T03:42:58.861Z,4.70
2019-04-16T03:45:26.439Z,4.60
2019-04-16T03:47:56.541Z,4.80
2019-04-16T03:50:31.119Z,4.70
2019-04-16T03:52:58.912Z,4.80
2019-04-16T03:55:29.074Z,4.70
2019-04-16T03:57:59.173Z,4.90
2019-04-16T04:00:29.350Z,5.00
2019-04-16T04:02:59.472Z,4.90
2019-04-16T04:05:29.464Z,5.10
2019-04-16T04:08:00.352Z,5.10
2019-04-16T04:10:34.188Z,5.10
2019-04-16T04:13:04.933Z,5.20
2019-04-16T04:15:34.153Z,5.20
2019-04-16T04:18:04.361Z,5.30
2019-04-16T04:20:34.394Z,5.40
2019-04-16T04:23:04.676Z,5.40
2019-04-16T04:25:36.291Z,5.40
2019-04-16T04:28:07.259Z,5.40
2019-04-16T04:30:37.383Z,5.50
2019-04-16T04:33:10.310Z,5.40
2019-04-16T04:35:40.400Z,5.40
2019-04-16T04:38:10.428Z,5.40
2019-04-16T04:40:44.598Z,5.40
2019-04-16T04:43:12.351Z,5.40
2019-04-16T04:45:42.455Z,5.60
2019-04-16T04:48:12.529Z,5.80
2019-04-16T04:50:43.855Z,5.80
2019-04-16T04:53:15.611Z,6.00
2019-04-16T04:55:45.778Z,6.00
2019-04-16T04:58:15.899Z,5.90
2019-04-16T05:00:47.316Z,5.70
2019-04-16T05:03:29.702Z,5.50
2019-04-16T05:06:00.548Z,5.60
2019-04-16T05:08:31.789Z,5.60
2019-04-16T05:11:03.031Z,5.70
2019-04-16T05:13:33.394Z,5.70
2019-04-16T05:16:03.504Z,5.70
2019-04-16T05:18:33.568Z,5.80
2019-04-16T05:21:03.796Z,5.60
2019-04-16T05:23:33.908Z,5.50
2019-04-16T05:26:04.722Z,5.60
2019-04-16T05:28:35.564Z,5.70
2019-04-16T05:31:05.655Z,5.70
2019-04-16T05:33:38.090Z,5.70
2019-04-16T05:36:10.971Z,6.30
2019-04-16T05:38:40.058Z,6.50
2019-04-16T05:41:13.504Z,6.50
2019-04-16T05:43:41.993Z,6.70
2019-04-16T05:46:12.005Z,6.80
2019-04-16T05:48:42.015Z,6.80
2019-04-16T05:51:12.043Z,6.90
2019-04-16T05:53:44.416Z,7.30
2019-04-16T05:56:24.963Z,7.50
2019-04-16T05:58:59.660Z,7.70
2019-04-16T06:01:45.433Z,7.80
2019-04-16T06:04:16.645Z,7.70
2019-04-16T06:06:46.831Z,7.90
2019-04-16T06:09:18.179Z,8.00
2019-04-16T06:11:48.433Z,8.10
2019-04-16T06:14:27.798Z,8.20
2019-04-16T06:17:08.141Z,8.30
2019-04-16T06:19:54.695Z,8.20
2019-04-16T06:22:33.399Z,8.40
2019-04-16T06:25:21.389Z,8.60
2019-04-16T06:28:16.263Z,8.70
2019-04-16T06:31:11.849Z,8.70
2019-04-16T06:33:50.600Z,8.80
2019-04-16T06:36:38.563Z,8.70
2019-04-16T06:39:29.803Z,8.70
2019-04-16T06:42:12.925Z,8.80
2019-04-16T06:44:53.897Z,8.80
2019-04-16T06:47:43.167Z,9.00
2019-04-16T06:50:31.236Z,9.10
2019-04-16T06:53:15.184Z,9.00
2019-04-16T06:56:08.794Z,9.30
2019-04-16T06:58:50.841Z,9.20
2019-04-16T07:01:22.098Z,9.30
2019-04-16T07:03:58.219Z,9.60
2019-04-16T07:06:53.307Z,9.70
2019-04-16T07:09:41.827Z,9.60
2019-04-16T07:12:12.727Z,9.80
2019-04-16T07:14:45.551Z,10.10
2019-04-16T07:17:17.854Z,10.20
2019-04-16T07:19:47.718Z,10.10
2019-04-16T07:22:21.425Z,10.00
2019-04-16T07:24:55.369Z,10.10
2019-04-16T07:27:34.890Z,10.40
2019-04-16T07:30:08.489Z,10.50
2019-04-16T07:32:47.903Z,11.00
2019-04-16T07:35:36.134Z,11.10
2019-04-16T07:38:13.683Z,11.10
2019-04-16T07:41:12.397Z,11.00
2019-04-16T07:44:04.469Z,11.30
2019-04-16T07:46:49.210Z,11.50
2019-04-16T07:49:41.163Z,11.50
2019-04-16T07:52:29.014Z,11.70
2019-04-16T07:55:23.733Z,11.70
2019-04-16T07:57:52.807Z,11.80
2019-04-16T08:00:22.893Z,11.80
2019-04-16T08:02:53.646Z,11.90
2019-04-16T08:05:27.626Z,12.10
2019-04-16T08:07:56.817Z,12.00
2019-04-16T08:10:26.970Z,12.00
2019-04-16T08:13:15.890Z,12.30
2019-04-16T08:15:46.153Z,12.30
2019-04-16T08:18:16.293Z,12.50
2019-04-16T08:21:00.056Z,12.30
2019-04-16T08:23:31.145Z,12.30
2019-04-16T08:26:04.012Z,12.40
2019-04-16T08:28:34.031Z,12.50
2019-04-16T08:31:10.765Z,12.40
2019-04-16T08:33:37.002Z,12.80
2019-04-16T08:36:07.322Z,13.10
2019-04-16T08:38:37.297Z,13.30
2019-04-16T08:41:07.333Z,13.60
2019-04-16T08:43:37.252Z,13.70
2019-04-16T08:46:10.383Z,14.00
2019-04-16T08:48:39.388Z,14.30
2019-04-16T08:51:09.406Z,14.50
2019-04-16T08:53:40.345Z,14.50
2019-04-16T08:56:10.396Z,14.40
2019-04-16T08:58:40.760Z,14.70
2019-04-16T09:01:18.826Z,14.90
2019-04-16T09:03:47.431Z,15.30
2019-04-16T09:06:17.523Z,15.30
2019-04-16T09:09:18.509Z,15.10
2019-04-16T09:11:54.167Z,14.60
2019-04-16T09:14:25.650Z,15.00
2019-04-16T09:17:03.527Z,14.90
2019-04-16T09:19:34.543Z,14.90
2019-04-16T09:22:04.747Z,14.90
2019-04-16T09:24:42.481Z,14.60
2019-04-16T09:27:28.719Z,14.80
2019-04-16T09:30:19.325Z,15.60
2019-04-16T09:33:17.729Z,16.10
2019-04-16T09:36:07.131Z,16.20
2019-04-16T09:38:45.548Z,16.90
2019-04-16T09:41:21.823Z,17.20
2019-04-16T09:43:57.231Z,17.30
2019-04-16T09:46:49.816Z,16.90
2019-04-16T09:48:59.262Z,16.60
2019-04-16T09:51:29.399Z,16.40
2019-04-16T09:53:59.543Z,16.50
2019-04-16T09:56:30.514Z,16.80
2019-04-16T09:59:11.019Z,17.00
2019-04-16T10:01:44.860Z,17.60
2019-04-16T10:04:17.119Z,17.30
2019-04-16T10:06:47.288Z,16.60
2019-04-16T10:09:21.693Z,16.70
2019-04-16T10:11:49.418Z,16.80
2019-04-16T10:14:19.645Z,16.80
2019-04-16T10:16:49.709Z,16.90
2019-04-16T10:19:21.682Z,16.90
2019-04-16T10:21:54.502Z,16.80
2019-04-16T10:24:41.217Z,17.20
2019-04-16T10:27:16.085Z,17.70
2019-04-16T10:29:46.214Z,18.00
2019-04-16T10:32:18.299Z,17.60
2019-04-16T10:34:48.307Z,17.50
2019-04-16T10:37:18.424Z,17.50
2019-04-16T10:39:57.670Z,17.40
2019-04-16T10:42:45.448Z,17.30
2019-04-16T10:45:35.615Z,17.30
2019-04-16T10:48:36.659Z,18.00
2019-04-16T10:51:16.373Z,18.50
2019-04-16T10:54:20.509Z,18.30
2019-04-16T10:57:10.355Z,18.20
2019-04-16T10:59:48.630Z,18.80
2019-04-16T11:02:55.891Z,19.50
2019-04-16T11:05:44.854Z,20.10
2019-04-16T11:08:15.285Z,21.10
2019-04-16T11:10:45.369Z,21.60
2019-04-16T11:13:29.826Z,21.20
2019-04-16T11:16:04.408Z,21.30
2019-04-16T11:18:34.585Z,21.40
2019-04-16T11:21:04.921Z,21.00
2019-04-16T11:23:35.032Z,21.20
2019-04-16T11:26:05.403Z,21.90
2019-04-16T11:28:35.556Z,22.10
2019-04-16T11:31:11.027Z,21.90
2019-04-16T11:33:41.121Z,22.40
2019-04-16T11:36:19.463Z,22.40
2019-04-16T11:38:43.319Z,22.20
2019-04-16T11:41:13.481Z,22.10
2019-04-16T11:43:43.594Z,22.00
2019-04-16T11:46:13.755Z,22.10
2019-04-16T11:48:43.822Z,21.10
2019-04-16T11:51:13.940Z,21.70
2019-04-16T11:53:44.083Z,22.30
2019-04-16T11:56:14.269Z,22.80
2019-04-16T11:58:47.705Z,22.40
2019-04-16T12:01:46.194Z,22.40
2019-04-16T12:04:40.811Z,23.00
2019-04-16T12:07:38.599Z,23.20
2019-04-16T12:10:28.280Z,24.10
2019-04-16T12:13:16.263Z,24.30
2019-04-16T12:16:05.503Z,24.60
2019-04-16T12:18:54.715Z,25.90
2019-04-16T12:21:42.280Z,26.10
2019-04-16T12:24:35.418Z,25.60
2019-04-16T12:27:24.630Z,25.80
2019-04-16T12:30:11.876Z,25.40
2019-04-16T12:32:49.821Z,26.20
2019-04-16T12:35:39.607Z,26.80
2019-04-16T12:38:17.974Z,25.50
2019-04-16T12:41:00.109Z,25.30
2019-04-16T12:43:52.003Z,24.20
2019-04-16T12:46:44.649Z,23.10
2019-04-16T12:49:36.699Z,23.80
2019-04-16T12:52:24.369Z,24.20
2019-04-16T12:55:04.179Z,24.20
2019-04-16T12:57:48.592Z,23.90
2019-04-16T13:00:33.536Z,23.70
2019-04-16T13:03:21.259Z,22.80
2019-04-16T13:06:26.133Z,22.10
2019-04-16T13:09:11.453Z,21.10
2019-04-16T13:11:56.528Z,21.00
2019-04-16T13:14:41.018Z,21.80
2019-04-16T13:20:57.499Z,22.70
2019-04-16T13:23:34.128Z,23.90
2019-04-16T13:26:13.096Z,24.80
2019-04-16T13:28:43.547Z,24.90
2019-04-16T13:31:13.684Z,25.50
2019-04-16T13:33:46.175Z,25.90
2019-04-16T13:36:16.829Z,25.30
2019-04-16T13:39:01.355Z,24.90
2019-04-16T13:41:40.372Z,24.50
2019-04-16T13:44:11.051Z,24.10
2019-04-16T13:46:41.203Z,23.80
2019-04-16T13:49:31.605Z,24.00
2019-04-16T13:52:00.698Z,24.00
2019-04-16T13:54:50.238Z,24.80
2019-04-16T13:57:22.571Z,24.90
2019-04-16T14:00:04.458Z,24.50
2019-04-16T14:02:47.856Z,23.90
2019-04-16T14:05:19.044Z,23.20
2019-04-16T14:07:49.213Z,23.30
2019-04-16T14:10:19.357Z,23.60
2019-04-16T14:12:49.494Z,23.30
2019-04-16T14:15:31.726Z,23.60
2019-04-16T14:17:59.171Z,24.10
2019-04-16T14:20:26.634Z,24.30
2019-04-16T14:22:56.758Z,23.80
2019-04-16T14:25:27.378Z,23.30
2019-04-16T14:28:01.944Z,23.70
2019-04-16T14:30:33.254Z,23.20
2019-04-16T14:33:06.459Z,22.90
2019-04-16T14:35:40.228Z,23.00
2019-04-16T14:38:09.578Z,22.10
2019-04-16T14:40:42.270Z,22.90
2019-04-16T14:43:13.102Z,23.70
2019-04-16T14:45:57.665Z,24.50
2019-04-16T14:48:18.423Z,25.10
2019-04-16T14:50:48.569Z,24.60
2019-04-16T14:53:46.439Z,23.80
2019-04-16T14:56:31.635Z,22.20
2019-04-16T14:59:30.015Z,22.10
2019-04-16T15:01:59.565Z,22.50
2019-04-16T15:04:36.068Z,23.20
2019-04-16T15:07:43.952Z,23.40
2019-04-16T15:10:41.266Z,23.20
2019-04-16T15:13:33.082Z,23.00
2019-04-16T15:16:21.293Z,23.40
2019-04-16T15:19:08.377Z,23.80
2019-04-16T15:21:55.703Z,24.00
2019-04-16T15:24:53.498Z,24.80
2019-04-16T15:27:57.910Z,24.70
2019-04-16T15:31:00.739Z,23.20
2019-04-16T15:33:38.959Z,22.60
2019-04-16T15:36:18.862Z,22.70
2019-04-16T15:39:06.442Z,22.20
2019-04-16T15:41:54.359Z,22.20
2019-04-16T15:44:31.935Z,22.20
2019-04-16T15:47:20.041Z,22.10
2019-04-16T15:49:57.350Z,22.30
2019-04-16T15:52:55.835Z,21.60
2019-04-16T15:55:40.362Z,21.10
2019-04-16T15:58:32.385Z,20.70
2019-04-16T16:01:20.032Z,20.90
2019-04-16T16:04:09.116Z,21.90
2019-04-16T16:07:02.699Z,21.90
2019-04-16T16:09:48.373Z,22.00
2019-04-16T16:12:22.984Z,21.60
2019-04-16T16:14:53.112Z,21.30
2019-04-16T16:17:23.473Z,21.50
2019-04-16T16:19:54.054Z,20.70
2019-04-16T16:22:24.216Z,20.90
2019-04-16T16:24:54.389Z,21.40
2019-04-16T16:27:24.408Z,21.40
2019-04-16T16:29:54.457Z,21.70
2019-04-16T16:32:24.470Z,21.10
2019-04-16T16:34:54.597Z,20.40
2019-04-16T16:37:26.088Z,20.40
2019-04-16T16:39:56.122Z,19.70
2019-04-16T16:42:26.173Z,19.10
2019-04-16T16:44:58.568Z,18.70
2019-04-16T16:47:35.352Z,18.50
2019-04-16T16:50:07.301Z,18.20
2019-04-16T16:52:50.210Z,17.90
2019-04-16T16:55:37.322Z,17.60
2019-04-16T16:58:25.473Z,17.40
2019-04-16T17:01:14.037Z,17.30
2019-04-16T17:03:52.749Z,17.10
2019-04-16T17:06:24.231Z,17.20
2019-04-16T17:08:54.456Z,17.10
2019-04-16T17:11:24.527Z,16.90
2019-04-16T17:13:54.765Z,16.80
2019-04-16T17:16:24.981Z,16.80
2019-04-16T17:18:55.242Z,16.60
2019-04-16T17:21:25.374Z,16.50
2019-04-16T17:23:55.628Z,16.40
2019-04-16T17:26:25.790Z,16.50
2019-04-16T17:28:55.903Z,16.40
2019-04-16T17:31:25.915Z,16.30
2019-04-16T17:33:56.051Z,16.20
2019-04-16T17:36:26.375Z,16.20
2019-04-16T17:38:56.524Z,16.20
2019-04-16T17:41:35.666Z,16.10
2019-04-16T17:44:15.632Z,16.10
2019-04-16T17:46:55.354Z,16.00
2019-04-16T17:49:35.181Z,15.90
2019-04-16T17:52:10.335Z,15.90
2019-04-16T17:55:11.234Z,15.90
2019-04-16T17:57:55.493Z,15.80
2019-04-16T18:00:47.577Z,15.80
2019-04-16T18:03:38.635Z,15.60
2019-04-16T18:06:16.736Z,15.60
2019-04-16T18:09:17.678Z,15.70
2019-04-16T18:12:07.765Z,15.60
2019-04-16T18:14:55.841Z,15.50
2019-04-16T18:17:47.515Z,15.50
2019-04-16T18:20:25.032Z,15.50
2019-04-16T18:23:20.029Z,15.50
2019-04-16T18:26:08.169Z,15.40
2019-04-16T18:28:52.123Z,15.50
2019-04-16T18:31:31.349Z,15.50
2019-04-16T18:34:11.501Z,15.30
2019-04-16T18:37:00.209Z,15.20
2019-04-16T18:39:49.421Z,15.10
2019-04-16T18:42:33.250Z,15.00
2019-04-16T18:45:22.351Z,15.00
2019-04-16T18:48:04.866Z,14.90
2019-04-16T18:50:30.712Z,14.90
2019-04-16T18:53:00.759Z,14.80
2019-04-16T18:55:30.818Z,14.80
2019-04-16T18:58:00.879Z,14.70
2019-04-16T19:00:38.513Z,14.70
2019-04-16T19:03:14.621Z,14.70
2019-04-16T19:05:40.659Z,14.60
2019-04-16T19:08:11.095Z,14.60
2019-04-16T19:10:41.476Z,14.50
2019-04-16T19:13:11.855Z,14.50
2019-04-16T19:15:41.952Z,14.30
2019-04-16T19:18:19.745Z,14.30
2019-04-16T19:20:44.213Z,14.10
2019-04-16T19:23:14.500Z,14.00
2019-04-16T19:25:44.678Z,13.90
2019-04-16T19:28:14.826Z,14.00
2019-04-16T19:30:44.782Z,13.80
2019-04-16T19:33:14.922Z,13.70
2019-04-16T19:35:44.970Z,13.60
2019-04-16T19:38:15.135Z,13.60
2019-04-16T19:40:47.744Z,13.50
2019-04-16T19:43:17.598Z,13.40
2019-04-16T19:45:47.792Z,13.30
2019-04-16T19:48:34.225Z,13.40
2019-04-16T19:50:50.991Z,13.30
2019-04-16T19:53:21.057Z,13.40
2019-04-16T19:55:51.074Z,13.50
2019-04-16T19:58:21.394Z,13.40
2019-04-16T20:00:54.019Z,13.40
2019-04-16T20:03:24.446Z,13.50
2019-04-16T20:05:54.521Z,13.50
2019-04-16T20:08:24.606Z,13.50
2019-04-16T20:10:54.711Z,13.50
2019-04-16T20:13:24.978Z,13.80
2019-04-16T20:15:55.083Z,13.70
2019-04-16T20:18:30.961Z,13.50
2019-04-16T20:21:02.212Z,13.60
2019-04-16T20:23:32.434Z,13.50
2019-04-16T20:26:03.679Z,13.50
2019-04-16T20:28:33.769Z,13.60
2019-04-16T20:31:04.777Z,13.50
2019-04-16T20:33:35.003Z,13.60
2019-04-16T20:36:05.270Z,13.50
2019-04-16T20:38:35.471Z,13.50
2019-04-16T20:41:05.963Z,13.20
2019-04-16T20:43:37.247Z,13.20
2019-04-16T20:46:07.516Z,13.20
2019-04-16T20:48:37.638Z,13.30
2019-04-16T20:51:08.767Z,13.40
2019-04-16T20:53:41.287Z,13.50
2019-04-16T20:56:10.958Z,13.50
2019-04-16T20:58:41.043Z,13.50
2019-04-16T21:01:12.333Z,13.60
2019-04-16T21:03:44.028Z,13.60
2019-04-16T21:06:14.180Z,13.60
2019-04-16T21:08:45.633Z,13.70
2019-04-16T21:11:15.655Z,13.50
2019-04-16T21:13:46.891Z,13.40
2019-04-16T21:16:17.701Z,13.20
2019-04-16T21:18:47.712Z,13.20
2019-04-16T21:21:19.629Z,13.20
2019-04-16T21:23:49.601Z,13.20
2019-04-16T21:26:20.122Z,13.10
2019-04-16T21:28:55.038Z,13.00
2019-04-16T21:31:30.285Z,12.90
2019-04-16T21:34:12.264Z,12.90
2019-04-16T21:36:49.768Z,12.80
2019-04-16T21:39:26.445Z,12.60
2019-04-16T21:42:00.905Z,12.50
2019-04-16T21:44:29.694Z,12.60
2019-04-16T21:46:59.622Z,12.50
2019-04-16T21:49:38.531Z,12.40
2019-04-16T21:52:07.250Z,12.50
2019-04-16T21:54:38.749Z,12.40
2019-04-16T21:57:13.119Z,12.40
2019-04-16T21:59:40.833Z,12.60
2019-04-16T22:02:18.265Z,12.60
2019-04-16T22:04:48.641Z,12.60
2019-04-16T22:07:24.277Z,12.60
2019-04-16T22:09:50.520Z,12.60
2019-04-16T22:12:20.731Z,12.50
2019-04-16T22:14:54.033Z,12.40
2019-04-16T22:17:22.930Z,12.40
2019-04-16T22:19:54.650Z,12.40
2019-04-16T22:22:27.526Z,12.80
2019-04-16T22:24:56.737Z,12.80
2019-04-16T22:27:26.850Z,12.60
2019-04-16T22:29:56.942Z,12.50
2019-04-16T22:32:30.290Z,12.30
2019-04-16T22:34:58.698Z,12.00
2019-04-16T22:37:28.934Z,11.90
2019-04-16T22:40:22.491Z,11.70
2019-04-16T22:43:07.031Z,11.60
2019-04-16T22:45:45.670Z,11.60
2019-04-16T22:48:16.793Z,11.30
2019-04-16T22:50:46.826Z,11.30
2019-04-16T22:53:17.895Z,11.40
2019-04-16T22:55:48.082Z,11.40
2019-04-16T22:58:24.904Z,11.40
2019-04-16T23:01:02.836Z,11.30
2019-04-16T23:03:32.935Z,11.30
2019-04-16T23:06:05.895Z,11.20
2019-04-16T23:08:35.542Z,11.20
2019-04-16T23:11:05.998Z,11.20
2019-04-16T23:13:36.097Z,11.10
2019-04-16T23:16:06.301Z,11.10
2019-04-16T23:18:36.335Z,11.10
2019-04-16T23:21:09.997Z,11.00
2019-04-16T23:23:38.856Z,11.00
2019-04-16T23:26:08.978Z,11.00
2019-04-16T23:28:39.721Z,11.00
2019-04-16T23:31:11.936Z,11.00
2019-04-16T23:33:41.950Z,11.10
2019-04-16T23:36:15.410Z,11.30
2019-04-16T23:38:43.821Z,11.20
2019-04-16T23:41:16.645Z,11.00
2019-04-16T23:44:13.420Z,10.90
2019-04-16T23:47:02.410Z,10.80
2019-04-16T23:49:36.783Z,10.70
2019-04-16T23:52:11.173Z,10.60
2019-04-16T23:54:45.813Z,10.60
2019-04-16T23:57:24.930Z,10.50
